• Join FlightAware (Why Join?)
  • Login
  • US Flag 
06:23AM EDT


 

Airport Tracker/Info


-or-


 

Live Flight TrackerFlight Track Log ✈ UAL5832 ✈ 14-Apr-2013 ✈ KABE - KORD

Flight Track Log - Related Links

Times and Time Zones

All times are in EDT time to prevent confusion due to time zone crossing. See the UAL5832 flight status page for this flight to view local times or setup timezone preferences in your user account.

Time Position Orientation Groundspeed Altitude Reporting Facility
EDT Latitude Longitude Course Direction KTS MPH feet Rate Location/Type
05:42PM 40.6817 -75.7022 262° West 239 275 4,600  Level New York Center
05:43PM 40.6722 -75.7756 260° West 234 269 7,400 1,620 Climbing New York Center
05:44PM 40.6586 -75.8483 256° West 224 258 8,000 1,200 Climbing New York Center
05:45PM 40.5878 -76.1254 264° West  Level FlightAware Approximate
05:45PM 40.6464 -75.9406 260° West 230 265 9,800  Level New York Center
05:46PM 40.5761 -76.2411 261° West  Level FlightAware Approximate
05:46PM 40.6342 -76.0272 259° West 241 277 11,400  Level New York Center
05:47PM 40.5667 -76.3568 270° West  Level FlightAware Approximate
05:47PM 40.6214 -76.1247 260° West 261 300 12,500  Level New York Center
05:48PM 40.5568 -76.4726 262° West  Level FlightAware Approximate
05:48PM 40.6061 -76.2328 259° West 292 336 13,700  Level New York Center
05:49PM 40.5911 -76.3328 259° West 312 359 15,100 1,380 Climbing New York Center
05:50PM 40.5747 -76.4572 260° West 312 359 16,500 1,140 Climbing New York Center
05:51PM 40.5567 -76.5703 258° West 317 365 17,500 900 Climbing New York Center
05:52PM 40.5611 -76.6936 273° West 330 380 18,400 840 Climbing New York Center
05:53PM 40.5714 -76.8175 276° West 335 386 19,300 900 Climbing New York Center
05:54PM 40.5836 -76.9469 277° West 347 399 20,300 1,140 Climbing New York Center
05:55PM 40.5933 -77.0764 276° West 354 407 21,600 1,320 Climbing New York Center
05:56PM 40.6053 -77.2006 277° West 354 407 23,000 1,440 Climbing New York Center
05:57PM 40.6153 -77.3247 276° West 354 407 24,500 1,500 Climbing New York Center
05:58PM 40.6272 -77.4461 277° West 349 402 26,000 1,020 Climbing New York Center
06:00PM 40.6508 -77.7369 276° West 351 404 28,000 540 Climbing Cleveland Center
06:01PM 40.6644 -77.8678 278° West 351 404 28,000  Level Cleveland Center
06:02PM 40.6822 -78.0011 280° West 366 421 28,000  Level Cleveland Center
06:03PM 40.7039 -78.1428 281° West 377 434 28,000  Level Cleveland Center
06:04PM 40.7214 -78.2817 279° West 388 447 28,000  Level Cleveland Center
06:05PM 40.7411 -78.4264 280° West 393 452 28,000  Level Cleveland Center
06:06PM 40.7603 -78.5711 280° West 398 458 28,000  Level Cleveland Center
06:07PM 40.7817 -78.7156 281° West 398 458 28,000  Level Cleveland Center
06:08PM 40.8006 -78.8606 280° West 409 471 28,000  Level Cleveland Center
06:09PM 40.8192 -78.9972 280° West 409 471 28,000  Level Cleveland Center
06:10PM 40.8378 -79.1394 280° West 409 471 28,000  Level Cleveland Center
06:11PM 40.8583 -79.2872 280° West 409 471 28,000  Level Cleveland Center
06:12PM 40.8744 -79.4325 278° West 409 471 28,000  Level Cleveland Center
06:13PM 40.8944 -79.5833 280° West 409 471 28,000  Level Cleveland Center
06:14PM 40.9125 -79.7314 279° West 409 471 28,000  Level Cleveland Center
06:15PM 40.9300 -79.8794 279° West 409 471 28,000  Level Cleveland Center
06:16PM 40.9497 -80.0442 279° West 409 471 28,000  Level Cleveland Center
06:17PM 40.9692 -80.1928 280° West 409 471 28,000  Level Cleveland Center
06:18PM 40.9861 -80.3439 278° West 409 471 28,000  Level Cleveland Center
06:19PM 41.0053 -80.4922 280° West 409 471 28,000  Level Cleveland Center
06:20PM 41.0197 -80.6353 278° West 409 471 28,000  Level Cleveland Center
06:21PM 41.0383 -80.7786 280° West 409 471 28,000  Level Cleveland Center
06:22PM 41.0528 -80.9217 278° West 409 471 28,000  Level Cleveland Center
06:23PM 41.0583 -81.0706 273° West 404 465 28,000  Level Cleveland Center
06:24PM 41.0681 -81.2194 275° West 409 471 28,000  Level Cleveland Center
06:25PM 41.0775 -81.3681 275° West 414 476 28,000  Level Cleveland Center
06:26PM 41.0869 -81.5197 275° West 414 476 28,000  Level Cleveland Center
06:27PM 41.0961 -81.6578 275° West 414 476 28,000  Level Cleveland Center
06:28PM 41.1050 -81.8122 274° West 420 483 28,000  Level Cleveland Center
06:29PM 41.1136 -81.9667 274° West 425 489 28,000  Level Cleveland Center
06:30PM 41.1219 -82.1211 274° West 425 489 28,000  Level Cleveland Center
06:31PM 41.1300 -82.2894 274° West 425 489 28,000  Level Cleveland Center
06:32PM 41.1381 -82.4414 274° West 425 489 28,000  Level Cleveland Center
06:33PM 41.1458 -82.5989 274° West 425 489 28,000  Level Cleveland Center
06:34PM 41.1536 -82.7508 274° West 419 482 28,000  Level Cleveland Center
06:35PM 41.1631 -82.9056 275° West 425 489 28,000  Level Cleveland Center
06:36PM 41.1700 -83.0603 273° West 425 489 28,000  Level Cleveland Center
06:37PM 41.1775 -83.2011 274° West 425 489 28,000  Level Cleveland Center
06:38PM 41.1842 -83.3561 273° West 425 489 28,000  Level Cleveland Center
06:39PM 41.1928 -83.5164 274° West 425 489 28,000  Level Cleveland Center
06:40PM 41.1969 -83.6739 272° West 425 489 28,000  Level Cleveland Center
06:41PM 41.2044 -83.8483 273° West 430 495 28,000  Level Cleveland Center
06:44PM 41.2225 -84.1775 274° West 435 501 28,000  Level Chicago Center
06:45PM 41.2272 -84.3378 272° West 435 501 28,000  Level Chicago Center
06:46PM 41.2308 -84.4972 272° West 434 499 28,000  Level Chicago Center
06:47PM 41.2356 -84.6586 272° West 437 503 28,000  Level Chicago Center
06:48PM 41.2411 -84.8514 272° West 436 502 28,000  Level Chicago Center
06:49PM 41.2467 -85.0139 273° West 438 504 28,000 -420 Level Chicago Center
06:50PM 41.2533 -85.1736 273° West 435 501 27,200 -840 Descending Chicago Center
06:51PM 41.2589 -85.3347 273° West 433 498 26,300 -960 Descending Chicago Center
06:52PM 41.2644 -85.4956 273° West 433 498 25,300 -780 Descending Chicago Center
06:53PM 41.2700 -85.6533 273° West 428 493 24,800 -660 Descending Chicago Center
06:54PM 41.2750 -85.8092 272° West 420 483 24,000 -420 Descending Chicago Center
06:55PM 41.2797 -85.9628 272° West 416 479 24,000 -720 Level Chicago Center
06:56PM 41.3108 -86.1428 283° West 418 481 22,600 -1,680 Descending Chicago Center
06:57PM 41.3469 -86.2894 288° West 416 479 20,600 -1,980 Descending Chicago Center
06:58PM 41.3819 -86.4300 288° West 401 461 18,600 -2,040 Descending Chicago Center
06:59PM 41.4150 -86.5639 288° West 385 443 16,500 -1,980 Descending Chicago Center
07:00PM 41.4475 -86.6928 289° West 368 423 14,600 -1,620 Descending Chicago Center
07:01PM 41.4814 -86.8303 288° West 352 405 13,100 -1,200 Descending Chicago Center
07:02PM 41.5097 -86.9494 288° West 343 395 12,200 -540 Descending Chicago Center
07:03PM 41.5403 -87.0728 288° West 351 404 12,000 -120 Descending Chicago Center
07:04PM 41.5667 -87.2000 286° West 347 399 12,000  Level Chicago TRACON
07:05PM 41.6167 -87.3167 300° West 352 405 12,000 -180 Level Chicago TRACON
07:06PM 41.6833 -87.4000 317° Northwest 343 395 11,700 -480 Descending Chicago TRACON
07:06PM 41.6878 -87.4261 283° West 347 399 11,500 -1,020 Descending Chicago Center
07:07PM 41.7447 -87.5014 315° West 300 345 10,400 -1,020 Descending Chicago Center
07:08PM 41.8061 -87.5692 321° Northwest 290 334 9,400 -1,080 Descending Chicago Center
07:09PM 41.8783 -87.6483 321° Northwest 283 326 8,200 -1,140 Descending Chicago Center
07:10PM 41.9167 -87.6833 326° Northwest 284 327 7,500 -780 Descending Chicago TRACON
07:11PM 41.9833 -87.7167 340° North 279 321 7,000 -840 Descending Chicago TRACON
07:12PM 42.0500 -87.6833 20° North 274 315 5,900 -1,260 Descending Chicago TRACON
07:13PM 42.1167 -87.6833 360° North 264 304 4,500 -1,260 Descending Chicago TRACON
07:14PM 42.1347 -87.7083 314° West 256 295 4,100 -960 Descending Chicago Center
07:15PM 42.1078 -87.7767 242° Southwest 205 236 3,100 -720 Descending Chicago Center
07:15PM 42.0833 -87.8000 215° Southwest 169 194 3,000 -660 Descending Chicago TRACON
07:16PM 42.0500 -87.8333 217° Southwest 174 200 2,200 -900 Descending Chicago TRACON
07:17PM 42.0167 -87.8667 217° Southwest 148 170 1,300 -840 Descending Chicago TRACON
07:20PM 41.9817 -87.9067 304° West  Level Estimated